Time;durP1;ratioP1;P1;durP2;ratioP2;P2;SDS_P1;SDS_P2;PMS_P1;PMS_P2;Temp;Humidity;BMP_temperature;BMP_pressure;BME280_temperature;BME280_humidity;BME280_pressure;Samples;Min_cycle;Max_cycle;Signal;HPM_P1;HPM_P2
2023/09/14 00:00:45;;;;;;;2.08;0.55;;;13.50;99.90;;;;;;4831628;29;20064;-90
2023/09/14 00:03:12;;;;;;;3.80;0.80;;;;;;;;;;4864107;29;20044;-90
2023/09/14 00:05:39;;;;;;;1.23;0.60;;;;;;;;;;4851507;29;20076;-90
2023/09/14 00:08:05;;;;;;;3.47;0.60;;;12.70;99.90;;;;;;4857710;29;20206;-90
2023/09/14 00:10:32;;;;;;;2.28;0.90;;;13.10;99.90;;;;;;4850561;29;20060;-89
2023/09/14 00:12:58;;;;;;;2.67;0.60;;;13.10;99.90;;;;;;4856674;29;20044;-91
2023/09/14 00:15:24;;;;;;;2.22;0.60;;;12.90;99.90;;;;;;4862003;29;20045;-90
2023/09/14 00:17:50;;;;;;;2.13;0.70;;;12.90;99.90;;;;;;4861088;29;20101;-90
2023/09/14 00:20:23;;;;;;;2.70;0.90;;;13.00;99.90;;;;;;4848560;29;20045;-91
2023/09/14 00:22:53;;;;;;;3.05;1.08;;;13.10;99.90;;;;;;4878703;29;20422;-91
2023/09/14 00:25:22;;;;;;;3.50;0.85;;;13.20;99.90;;;;;;4867274;29;20056;-90
2023/09/14 00:27:49;;;;;;;3.10;0.80;;;12.70;99.90;;;;;;4845563;29;20041;-90
2023/09/14 00:30:15;;;;;;;3.17;0.80;;;;;;;;;;4844179;29;20074;-88
2023/09/14 00:32:42;;;;;;;1.77;0.73;;;13.20;99.90;;;;;;4844194;29;20565;-90
2023/09/14 00:35:11;;;;;;;4.45;1.08;;;13.20;99.90;;;;;;4843599;29;20127;-90
2023/09/14 00:37:38;;;;;;;2.95;0.80;;;;;;;;;;4852998;29;20084;-91
2023/09/14 00:40:06;;;;;;;3.30;0.90;;;;;;;;;;4868902;29;20051;-91
2023/09/14 00:42:40;;;;;;;6.38;0.90;;;;;;;;;;4865154;29;20132;-91
2023/09/14 00:45:07;;;;;;;2.53;0.88;;;;;;;;;;4872100;29;20053;-90
2023/09/14 00:47:33;;;;;;;3.60;0.73;;;;;;;;;;4851338;29;20057;-90
2023/09/14 00:49:59;;;;;;;2.42;0.70;;;;;;;;;;4865396;29;20572;-90
2023/09/14 00:52:25;;;;;;;3.97;0.85;;;;;;;;;;4831588;29;20045;-90
2023/09/14 00:54:52;;;;;;;2.53;1.25;;;;;;;;;;4857204;29;20489;-90
2023/09/14 00:57:18;;;;;;;3.78;0.80;;;;;;;;;;4849460;29;20052;-90
2023/09/14 00:59:45;;;;;;;3.25;0.70;;;;;;;;;;4850081;29;20143;-91
2023/09/14 01:02:11;;;;;;;5.73;1.00;;;;;;;;;;4859507;29;20056;-91
2023/09/14 01:04:37;;;;;;;4.53;0.73;;;13.10;99.90;;;;;;4846927;29;20052;-92
2023/09/14 01:07:03;;;;;;;2.45;0.65;;;13.10;99.90;;;;;;4826681;29;20048;-91
2023/09/14 01:09:30;;;;;;;3.42;1.00;;;13.20;99.90;;;;;;4824945;29;20049;-90
2023/09/14 01:11:56;;;;;;;3.72;1.20;;;13.10;99.90;;;;;;4846710;29;20048;-91
2023/09/14 01:14:34;;;;;;;4.47;0.70;;;13.20;99.90;;;;;;4844904;29;20147;-91
2023/09/14 01:17:08;;;;;;;4.00;0.90;;;13.00;99.90;;;;;;4859802;29;20049;-90
2023/09/14 01:20:01;;;;;;;6.38;0.90;;;13.20;99.90;;;;;;4866476;29;20131;-91
2023/09/14 01:23:00;;;;;;;1.42;0.55;;;13.20;99.90;;;;;;4851435;29;20045;-89
2023/09/14 01:25:29;;;;;;;;;;;13.60;99.90;;;;;;4856750;29;20116;-90
2023/09/14 01:27:56;;;;;;;;;;;13.50;99.90;;;;;;4869010;29;19939;-91
2023/09/14 01:30:22;;;;;;;2.33;0.70;;;13.50;99.90;;;;;;4861118;29;19923;-91
2023/09/14 01:32:48;;;;;;;4.05;0.85;;;13.40;99.90;;;;;;4829615;29;20079;-91
2023/09/14 01:35:14;;;;;;;4.10;0.90;;;13.40;99.90;;;;;;4845971;29;20135;-90
2023/09/14 01:37:40;;;;;;;4.90;0.73;;;13.30;99.90;;;;;;4864766;29;20793;-91
2023/09/14 01:40:09;;;;;;;1.98;0.70;;;;;;;;;;4876156;29;20412;-91
2023/09/14 01:42:36;;;;;;;2.35;0.77;;;12.40;99.90;;;;;;4878659;29;20655;-89
2023/09/14 01:45:03;;;;;;;3.08;0.82;;;13.20;99.90;;;;;;4850198;29;20048;-91
2023/09/14 01:47:29;;;;;;;2.13;0.60;;;;;;;;;;4845108;29;20060;-89
2023/09/14 01:49:54;;;;;;;2.35;0.90;;;13.30;99.90;;;;;;4845499;29;20111;-90
2023/09/14 01:52:21;;;;;;;2.63;0.70;;;13.20;99.90;;;;;;4836146;29;20463;-90
2023/09/14 01:54:46;;;;;;;1.67;0.80;;;13.20;99.90;;;;;;4849839;29;20043;-91
2023/09/14 01:57:12;;;;;;;2.33;0.80;;;13.20;99.90;;;;;;4831444;29;20053;-89
2023/09/14 01:59:37;;;;;;;2.13;0.80;;;13.20;99.90;;;;;;4849135;29;20136;-91
2023/09/14 02:02:04;;;;;;;1.77;0.70;;;;;;;;;;4848851;29;20512;-90
2023/09/14 02:04:30;;;;;;;1.17;0.60;;;;;;;;;;4842763;29;20044;-89
2023/09/14 02:06:55;;;;;;;2.08;0.57;;;13.30;99.90;;;;;;4880051;29;20151;-90
2023/09/14 02:09:23;;;;;;;2.17;1.10;;;;;;;;;;4858835;29;20131;-90
2023/09/14 02:11:49;;;;;;;2.10;1.15;;;;;;;;;;4876535;29;20481;-90
2023/09/14 02:14:15;;;;;;;2.10;0.70;;;;;;;;;;4865191;29;20055;-90
2023/09/14 02:16:41;;;;;;;2.17;0.70;;;;;;;;;;4847529;29;20584;-90
2023/09/14 02:19:07;;;;;;;1.60;0.65;;;13.10;99.90;;;;;;4860146;29;20049;-90
2023/09/14 02:21:33;;;;;;;3.17;0.70;;;12.90;99.90;;;;;;4832858;29;20234;-90
2023/09/14 02:24:00;;;;;;;2.13;0.80;;;;;;;;;;4864630;29;20049;-90
2023/09/14 02:26:26;;;;;;;1.73;0.60;;;;;;;;;;4861912;29;20057;-90
2023/09/14 02:28:52;;;;;;;5.07;0.70;;;;;;;;;;4874176;29;20208;-91
2023/09/14 02:31:19;;;;;;;2.25;0.70;;;;;;;;;;4865450;29;20528;-90
2023/09/14 02:33:45;;;;;;;2.67;0.75;;;;;;;;;;4864909;29;20096;-89
2023/09/14 02:36:11;;;;;;;1.77;0.65;;;;;;;;;;4879689;29;20071;-90
2023/09/14 02:38:37;;;;;;;2.45;0.70;;;;;;;;;;4862895;29;20076;-90
2023/09/14 02:41:03;;;;;;;3.15;0.80;;;;;;;;;;4855268;29;20347;-91
2023/09/14 02:43:29;;;;;;;3.35;0.93;;;;;;;;;;4850389;29;20067;-91
2023/09/14 02:45:55;;;;;;;2.58;0.60;;;12.60;99.90;;;;;;4858371;29;20044;-89
2023/09/14 02:48:21;;;;;;;3.38;1.10;;;;;;;;;;4848656;29;20357;-90
2023/09/14 02:50:47;;;;;;;1.55;0.52;;;;;;;;;;4863215;29;21038;-90
2023/09/14 02:53:13;;;;;;;3.08;0.82;;;;;;;;;;4858439;29;20044;-91
2023/09/14 02:55:39;;;;;;;1.70;0.80;;;;;;;;;;4866151;29;20044;-90
2023/09/14 02:58:08;;;;;;;1.83;0.80;;;;;;;;;;4848284;29;20040;-89
2023/09/14 03:00:34;;;;;;;2.53;0.75;;;;;;;;;;4864042;29;20056;-90
2023/09/14 03:03:00;;;;;;;2.00;0.73;;;;;;;;;;4864595;29;20397;-90
2023/09/14 03:05:26;;;;;;;3.25;0.68;;;;;;;;;;4848896;29;20051;-90
2023/09/14 03:07:52;;;;;;;2.33;0.70;;;;;;;;;;4845774;29;20558;-90
2023/09/14 03:10:18;;;;;;;2.10;0.73;;;;;;;;;;4848838;29;20059;-90
2023/09/14 03:12:44;;;;;;;2.97;0.65;;;;;;;;;;4862636;29;20041;-89
2023/09/14 03:15:10;;;;;;;2.72;1.02;;;;;;;;;;4845569;29;20044;-90
2023/09/14 03:17:36;;;;;;;3.92;0.80;;;;;;;;;;4864347;29;20135;-90
2023/09/14 03:20:06;;;;;;;3.45;0.70;;;;;;;;;;4865306;29;20674;-91
2023/09/14 03:22:32;;;;;;;2.15;0.82;;;;;;;;;;4846922;29;20048;-90
2023/09/14 03:24:59;;;;;;;2.45;1.25;;;;;;;;;;4864449;29;20511;-90
2023/09/14 03:27:25;;;;;;;1.92;0.73;;;;;;;;;;4874102;29;20040;-90
2023/09/14 03:29:51;;;;;;;1.95;0.73;;;;;;;;;;4865852;29;20044;-91
2023/09/14 03:32:17;;;;;;;1.80;0.70;;;;;;;;;;4847804;29;20160;-90
2023/09/14 03:34:43;;;;;;;3.15;0.65;;;;;;;;;;4851147;29;20037;-91
2023/09/14 03:37:09;;;;;;;6.03;0.80;;;;;;;;;;4847770;29;20040;-90
2023/09/14 03:39:35;;;;;;;2.00;1.00;;;;;;;;;;4866639;29;20644;-89
2023/09/14 03:42:01;;;;;;;1.80;0.60;;;;;;;;;;4850035;29;20045;-89
2023/09/14 03:44:27;;;;;;;2.83;0.70;;;;;;;;;;4850875;29;20053;-89
2023/09/14 03:46:53;;;;;;;3.13;0.90;;;;;;;;;;4865031;29;20043;-90
2023/09/14 03:49:19;;;;;;;3.42;0.77;;;;;;;;;;4870931;29;20123;-90
2023/09/14 03:51:46;;;;;;;2.13;0.60;;;;;;;;;;4867748;29;20716;-90
2023/09/14 03:54:11;;;;;;;1.92;0.73;;;12.10;99.90;;;;;;4861912;29;20075;-89
2023/09/14 03:56:38;;;;;;;3.10;0.88;;;;;;;;;;4851303;29;20044;-90
2023/09/14 03:59:04;;;;;;;1.63;0.75;;;;;;;;;;4877656;29;20064;-90
2023/09/14 04:01:30;;;;;;;1.70;0.65;;;12.20;99.90;;;;;;4880571;29;20481;-90
2023/09/14 04:03:56;;;;;;;2.13;0.60;;;12.00;99.90;;;;;;4834229;29;20080;-90
2023/09/14 04:06:22;;;;;;;2.63;0.80;;;12.10;99.90;;;;;;4881681;29;20056;-90
2023/09/14 04:08:48;;;;;;;3.45;0.90;;;;;;;;;;4851546;29;20041;-90
2023/09/14 04:11:14;;;;;;;2.67;0.60;;;;;;;;;;4867466;29;20036;-90
2023/09/14 04:13:39;;;;;;;2.90;0.70;;;12.10;99.90;;;;;;4852942;29;20093;-89
2023/09/14 04:16:05;;;;;;;3.97;0.80;;;12.00;99.90;;;;;;4849468;29;20681;-89
2023/09/14 04:18:38;;;;;;;4.63;0.80;;;11.80;99.90;;;;;;4883546;29;20055;-90
2023/09/14 04:21:05;;;;;;;2.83;0.90;;;11.80;99.90;;;;;;4851873;29;20328;-89
2023/09/14 04:23:31;;;;;;;4.90;0.70;;;11.90;99.90;;;;;;4864519;29;20045;-90
2023/09/14 04:25:57;;;;;;;3.40;0.93;;;11.80;99.90;;;;;;4860438;29;20119;-90
2023/09/14 04:28:22;;;;;;;2.28;0.90;;;11.70;99.90;;;;;;4865399;29;20051;-90
2023/09/14 04:30:52;;;;;;;3.17;0.80;;;11.70;99.90;;;;;;4866130;29;20432;-90
2023/09/14 04:33:18;;;;;;;3.03;0.90;;;11.70;99.90;;;;;;4865047;29;20189;-90
2023/09/14 04:35:44;;;;;;;1.73;0.73;;;11.80;99.90;;;;;;4861992;29;20047;-89
2023/09/14 04:38:11;;;;;;;3.58;1.10;;;11.70;99.90;;;;;;4850776;29;20041;-89
2023/09/14 04:40:41;;;;;;;3.47;1.00;;;11.70;99.90;;;;;;4866643;29;20203;-90
2023/09/14 04:43:08;;;;;;;3.40;1.10;;;11.70;99.90;;;;;;4868689;29;20076;-90
2023/09/14 04:45:34;;;;;;;3.58;1.40;;;11.70;99.90;;;;;;4848121;29;20498;-90
2023/09/14 04:48:01;;;;;;;1.98;0.95;;;11.60;99.90;;;;;;4846433;29;20048;-88
2023/09/14 04:50:26;;;;;;;2.30;0.93;;;11.70;99.90;;;;;;4848349;29;20041;-91
2023/09/14 04:52:52;;;;;;;3.95;1.02;;;11.60;99.90;;;;;;4845820;29;20037;-92
2023/09/14 04:55:20;;;;;;;1.42;0.82;;;11.60;99.90;;;;;;4839409;29;20037;-92
2023/09/14 04:57:46;;;;;;;5.22;1.00;;;11.50;99.90;;;;;;4879375;29;20139;-91
2023/09/14 05:00:12;;;;;;;4.10;1.10;;;11.50;99.90;;;;;;4867065;29;20151;-91
2023/09/14 05:02:39;;;;;;;2.30;1.10;;;11.50;99.90;;;;;;4850222;29;20151;-92
2023/09/14 05:05:06;;;;;;;3.33;1.15;;;11.50;99.90;;;;;;4851139;29;20104;-91
2023/09/14 05:07:32;;;;;;;2.58;1.23;;;11.50;99.90;;;;;;4836962;29;20544;-92
2023/09/14 05:09:58;;;;;;;3.80;1.20;;;11.40;99.90;;;;;;4868027;29;20123;-92
2023/09/14 05:12:24;;;;;;;3.78;1.25;;;11.40;99.90;;;;;;4866539;29;20083;-92
2023/09/14 05:14:50;;;;;;;3.72;1.20;;;11.40;99.90;;;;;;4862157;29;20041;-91
2023/09/14 05:17:15;;;;;;;4.00;2.08;;;11.40;99.90;;;;;;4866332;29;20048;-92
2023/09/14 05:19:44;;;;;;;5.00;1.40;;;11.40;99.90;;;;;;4852992;29;20047;-91
2023/09/14 05:22:11;;;;;;;3.50;1.50;;;11.40;99.90;;;;;;4866667;29;20048;-93
2023/09/14 05:24:40;;;;;;;3.97;1.38;;;11.30;99.90;;;;;;4874772;29;20040;-92
2023/09/14 05:27:06;;;;;;;2.60;1.30;;;11.40;99.90;;;;;;4865000;29;20059;-92
2023/09/14 05:29:32;;;;;;;5.38;1.33;;;11.40;99.90;;;;;;4882187;29;20033;-92
2023/09/14 05:31:58;;;;;;;5.63;1.40;;;11.40;99.90;;;;;;4845257;29;20040;-92
2023/09/14 05:34:24;;;;;;;3.92;1.45;;;11.00;99.90;;;;;;4830832;29;20140;-93
2023/09/14 05:36:50;;;;;;;6.77;1.97;;;11.50;99.90;;;;;;4855394;29;20044;-93
2023/09/14 05:39:16;;;;;;;2.65;1.10;;;11.50;99.90;;;;;;4821106;29;20512;-92
2023/09/14 05:41:43;;;;;;;3.25;1.27;;;11.50;99.90;;;;;;4859956;29;20044;-91
2023/09/14 05:44:10;;;;;;;2.60;1.30;;;11.60;99.90;;;;;;4865464;29;20048;-92
2023/09/14 05:46:39;;;;;;;3.45;1.20;;;11.60;99.90;;;;;;4847912;29;20045;-91
2023/09/14 05:49:08;;;;;;;3.80;1.50;;;11.60;99.90;;;;;;4861419;29;20045;-92
2023/09/14 05:51:34;;;;;;;5.70;1.73;;;11.70;99.90;;;;;;4860305;29;20040;-92
2023/09/14 05:54:00;;;;;;;2.20;1.20;;;11.80;99.90;;;;;;4842284;29;20091;-91
2023/09/14 05:56:25;;;;;;;3.47;1.40;;;12.60;99.90;;;;;;4829967;29;20056;-92
2023/09/14 05:58:51;;;;;;;3.38;1.58;;;11.90;99.90;;;;;;4840194;29;20076;-91
2023/09/14 06:01:17;;;;;;;4.85;1.55;;;12.00;99.90;;;;;;4825856;29;20048;-91
2023/09/14 06:03:43;;;;;;;4.88;1.60;;;12.10;99.90;;;;;;4826034;29;20049;-91
2023/09/14 06:06:09;;;;;;;3.45;1.45;;;12.20;99.90;;;;;;4841906;29;20644;-91
2023/09/14 06:08:35;;;;;;;4.88;1.40;;;12.30;99.90;;;;;;4841497;29;20036;-92
2023/09/14 06:11:01;;;;;;;4.35;1.70;;;12.30;99.90;;;;;;4825318;29;20303;-92
2023/09/14 06:13:27;;;;;;;2.78;1.38;;;12.40;99.90;;;;;;4833378;29;20044;-93
2023/09/14 06:15:52;;;;;;;4.43;1.75;;;12.40;99.90;;;;;;4829652;29;20048;-92
2023/09/14 06:18:18;;;;;;;3.92;1.30;;;12.50;99.90;;;;;;4842655;29;20266;-92
2023/09/14 06:20:44;;;;;;;5.25;1.40;;;12.60;99.90;;;;;;4830558;29;20510;-92
2023/09/14 06:23:10;;;;;;;11.05;1.50;;;12.70;99.90;;;;;;4842679;29;20555;-92
2023/09/14 06:25:36;;;;;;;6.93;1.60;;;12.80;99.90;;;;;;4826589;29;20135;-92
2023/09/14 06:28:01;;;;;;;3.25;1.15;;;12.90;99.90;;;;;;4842071;29;20044;-92
2023/09/14 06:30:27;;;;;;;4.00;1.17;;;13.00;99.90;;;;;;4830955;29;20045;-92
2023/09/14 06:32:53;;;;;;;3.03;1.35;;;13.10;99.90;;;;;;4843155;29;20045;-92
2023/09/14 06:35:19;;;;;;;5.63;1.70;;;13.30;99.90;;;;;;4845040;29;20457;-91
2023/09/14 06:37:45;;;;;;;4.38;1.20;;;13.40;99.90;;;;;;4844753;29;20056;-91
2023/09/14 06:40:11;;;;;;;8.17;3.10;;;13.40;99.90;;;;;;4841352;29;20045;-89
2023/09/14 06:42:37;;;;;;;4.55;1.35;;;13.60;99.90;;;;;;4847818;29;20095;-90
2023/09/14 06:45:03;;;;;;;5.15;1.40;;;14.00;99.90;;;;;;4874125;29;20048;-90
2023/09/14 06:47:29;;;;;;;6.20;1.48;;;14.10;99.90;;;;;;4842111;29;20068;-89
2023/09/14 06:49:55;;;;;;;5.78;1.55;;;14.20;99.90;;;;;;4825247;29;20525;-89
2023/09/14 06:52:21;;;;;;;3.53;1.20;;;14.50;99.90;;;;;;4836433;29;20076;-91
2023/09/14 06:54:47;;;;;;;6.38;1.30;;;;;;;;;;4837691;29;20076;-91
2023/09/14 06:57:14;;;;;;;5.18;1.50;;;14.40;99.90;;;;;;4862154;29;20057;-91
2023/09/14 06:59:39;;;;;;;5.70;1.33;;;14.60;99.90;;;;;;4837990;29;20198;-90
2023/09/14 07:02:06;;;;;;;3.97;1.10;;;14.80;99.90;;;;;;4827178;29;20112;-92
2023/09/14 07:04:34;;;;;;;5.53;1.60;;;14.90;99.90;;;;;;4829264;29;20048;-92
2023/09/14 07:07:00;;;;;;;5.38;1.25;;;14.90;99.90;;;;;;4852691;29;20595;-92
2023/09/14 07:09:26;;;;;;;2.60;1.15;;;14.90;99.90;;;;;;4841879;29;20513;-92
2023/09/14 07:11:52;;;;;;;4.13;1.33;;;15.10;99.90;;;;;;4840737;29;20152;-92
2023/09/14 07:14:18;;;;;;;9.48;1.33;;;15.60;99.90;;;;;;4825060;29;20075;-92
2023/09/14 07:16:43;;;;;;;4.43;1.65;;;14.90;99.90;;;;;;4859760;29;20342;-92
2023/09/14 07:19:10;;;;;;;6.03;1.52;;;17.50;99.90;;;;;;4836425;29;20063;-92
2023/09/14 07:21:37;;;;;;;3.22;0.98;;;15.30;99.90;;;;;;4844954;29;20048;-92
2023/09/14 07:24:07;;;;;;;3.33;1.00;;;16.30;99.90;;;;;;4841295;29;20048;-92
2023/09/14 07:26:34;;;;;;;5.57;1.20;;;16.40;99.90;;;;;;4855058;29;20622;-91
2023/09/14 07:29:00;;;;;;;7.03;1.40;;;16.80;99.90;;;;;;4848694;29;20045;-89
2023/09/14 07:31:26;;;;;;;3.67;1.10;;;;;;;;;;4835548;29;20131;-92
2023/09/14 07:33:52;;;;;;;2.47;0.75;;;18.40;99.90;;;;;;4859684;29;20040;-92
2023/09/14 07:36:18;;;;;;;3.53;1.00;;;19.20;99.90;;;;;;4839480;29;20052;-90
2023/09/14 07:38:44;;;;;;;2.30;1.00;;;19.40;99.90;;;;;;4854401;29;20055;-90
2023/09/14 07:41:11;;;;;;;5.05;0.95;;;19.50;99.90;;;;;;4854529;29;20060;-91
2023/09/14 07:43:37;;;;;;;5.28;0.88;;;19.50;99.90;;;;;;4841510;29;20053;-92
2023/09/14 07:46:03;;;;;;;2.60;0.98;;;19.30;99.90;;;;;;4840926;29;20161;-92
2023/09/14 07:48:28;;;;;;;5.07;0.85;;;19.10;99.90;;;;;;4842792;29;20394;-92
2023/09/14 07:50:55;;;;;;;3.05;0.70;;;18.90;99.90;;;;;;4843228;29;20329;-89
2023/09/14 07:53:20;;;;;;;4.27;0.90;;;19.20;99.90;;;;;;4843169;29;20408;-90
2023/09/14 07:55:52;;;;;;;6.15;0.88;;;19.50;99.90;;;;;;4844925;29;20044;-92
2023/09/14 07:58:20;;;;;;;2.58;0.88;;;20.20;99.90;;;;;;4858683;29;20048;-93
2023/09/14 08:00:47;;;;;;;4.57;0.68;;;21.10;99.90;;;;;;4847855;29;20525;-89
2023/09/14 08:03:14;;;;;;;2.60;0.43;;;21.60;99.90;;;;;;4857273;29;20044;-91
2023/09/14 08:05:41;;;;;;;2.45;0.60;;;22.30;99.90;;;;;;4854676;29;20053;-91
2023/09/14 08:08:08;;;;;;;1.52;0.57;;;23.00;99.90;;;;;;4844197;29;20044;-92
2023/09/14 08:10:33;;;;;;;3.10;0.80;;;23.00;99.90;;;;;;4846146;29;20147;-89
2023/09/14 08:13:00;;;;;;;1.75;0.60;;;22.60;99.90;;;;;;4845629;29;20216;-93
2023/09/14 08:15:26;;;;;;;2.90;0.93;;;22.20;99.90;;;;;;4832267;29;20048;-91
2023/09/14 08:17:52;;;;;;;2.27;0.70;;;21.70;99.90;;;;;;4860474;29;20109;-92
2023/09/14 08:20:18;;;;;;;2.03;0.50;;;21.60;99.90;;;;;;4846034;29;20507;-91
2023/09/14 08:22:44;;;;;;;2.15;0.70;;;22.00;99.90;;;;;;4856816;29;20049;-91
2023/09/14 08:25:10;;;;;;;3.60;0.80;;;22.80;99.90;;;;;;4849180;29;20088;-91
2023/09/14 08:27:38;;;;;;;2.60;0.70;;;23.40;99.90;;;;;;4857368;29;20048;-90
2023/09/14 08:30:06;;;;;;;1.92;0.60;;;23.70;99.90;;;;;;4847678;29;20056;-90
2023/09/14 08:32:32;;;;;;;2.85;0.80;;;23.60;99.90;;;;;;4846951;29;20051;-91
2023/09/14 08:35:01;;;;;;;5.88;0.90;;;23.60;99.90;;;;;;4828958;29;20126;-91
2023/09/14 08:37:26;;;;;;;4.07;1.00;;;23.50;99.90;;;;;;4836269;29;20056;-91
2023/09/14 08:39:52;;;;;;;5.15;1.35;;;23.30;99.90;;;;;;4832119;29;20048;-92
2023/09/14 08:42:22;;;;;;;6.28;1.73;;;22.80;99.90;;;;;;4843276;29;20041;-91
2023/09/14 08:44:50;;;;;;;2.47;0.70;;;22.30;99.90;;;;;;4863416;29;20384;-93
2023/09/14 08:47:17;;;;;;;1.95;0.60;;;21.80;99.90;;;;;;4857282;29;20068;-89
2023/09/14 08:49:44;;;;;;;;;;;21.40;99.90;;;;;;4832220;29;20117;-91
2023/09/14 08:52:12;;;;;;;2.83;0.60;;;21.10;98.00;;;;;;4840873;29;19934;-90
2023/09/14 08:54:38;;;;;;;4.75;0.98;;;21.00;99.90;;;;;;4848919;29;20040;-90
2023/09/14 08:57:07;;;;;;;3.93;0.60;;;20.90;99.90;;;;;;4845632;29;20052;-90
2023/09/14 08:59:36;;;;;;;2.38;0.77;;;20.90;99.90;;;;;;4856019;29;20080;-91
2023/09/14 09:02:03;;;;;;;2.80;0.80;;;20.70;99.90;;;;;;4854718;29;20045;-92
2023/09/14 09:04:29;;;;;;;;;;;20.60;99.90;;;;;;4860438;29;20080;-91
2023/09/14 09:06:55;;;;;;;2.10;0.70;;;20.60;99.90;;;;;;4858288;29;19966;-92
2023/09/14 09:09:23;;;;;;;1.88;0.60;;;20.60;99.90;;;;;;4872639;29;20041;-90
2023/09/14 09:11:49;;;;;;;2.65;0.68;;;20.50;99.90;;;;;;4863793;29;20492;-91
2023/09/14 09:14:15;;;;;;;3.08;0.75;;;20.60;99.90;;;;;;4859582;29;20044;-94
2023/09/14 09:16:44;;;;;;;3.33;0.80;;;20.70;99.90;;;;;;4846786;29;20040;-93
2023/09/14 09:19:10;;;;;;;4.90;0.98;;;20.70;99.90;;;;;;4877264;29;20052;-92
2023/09/14 09:21:37;;;;;;;2.90;0.83;;;20.70;99.90;;;;;;4854132;29;20449;-89
2023/09/14 09:24:07;;;;;;;3.90;0.80;;;20.70;99.90;;;;;;4855129;29;20465;-91
2023/09/14 09:26:38;;;;;;;3.25;0.70;;;20.80;99.90;;;;;;4858827;29;20076;-90
2023/09/14 09:29:16;;;;;;;3.70;0.75;;;20.80;99.90;;;;;;4854783;29;20132;-93
2023/09/14 09:31:47;;;;;;;2.50;0.60;;;20.90;99.90;;;;;;4862575;29;20127;-90
2023/09/14 09:34:14;;;;;;;1.02;0.60;;;20.90;99.90;;;;;;4862931;29;20053;-89
2023/09/14 09:36:40;;;;;;;3.13;0.65;;;21.00;99.90;;;;;;4867061;29;20452;-89
2023/09/14 09:39:10;;;;;;;5.30;0.98;;;21.00;99.90;;;;;;4848712;29;20489;-94
2023/09/14 09:41:37;;;;;;;3.53;1.05;;;21.00;99.90;;;;;;4882139;29;20055;-93
2023/09/14 09:44:14;;;;;;;1.75;0.70;;;21.00;99.90;;;;;;4858418;29;20048;-91
2023/09/14 09:46:40;;;;;;;4.22;0.68;;;21.00;99.90;;;;;;4885654;29;20055;-90
2023/09/14 09:49:28;;;;;;;2.90;0.68;;;21.10;99.90;;;;;;4845245;29;20049;-89
2023/09/14 09:51:54;;;;;;;1.83;0.60;;;21.20;99.90;;;;;;4859257;29;20043;-91
2023/09/14 09:54:24;;;;;;;2.83;0.85;;;21.20;99.90;;;;;;4858475;29;20446;-90
2023/09/14 09:56:55;;;;;;;3.80;0.75;;;21.20;99.90;;;;;;4849834;29;20052;-91
2023/09/14 09:59:25;;;;;;;3.45;0.80;;;21.30;99.90;;;;;;4853370;29;20053;-93
2023/09/14 10:01:51;;;;;;;1.60;0.63;;;21.30;99.90;;;;;;4847672;29;20053;-91
2023/09/14 10:04:20;;;;;;;3.65;0.77;;;21.20;99.90;;;;;;4867033;29;20059;-93
2023/09/14 10:06:55;;;;;;;1.95;0.70;;;21.30;99.90;;;;;;4848477;29;20168;-93
2023/09/14 10:09:22;;;;;;;3.47;0.70;;;21.20;99.90;;;;;;4861606;29;20044;-91
2023/09/14 10:11:50;;;;;;;;;;;21.20;99.90;;;;;;4870036;29;20433;-93
2023/09/14 10:14:18;;;;;;;3.53;0.80;;;21.10;97.40;;;;;;4860211;29;19971;-93
2023/09/14 10:16:45;;;;;;;3.40;0.90;;;21.10;99.90;;;;;;4863182;29;20100;-94
2023/09/14 10:19:15;;;;;;;4.05;0.80;;;21.10;99.90;;;;;;4863069;29;20076;-90
2023/09/14 10:21:43;;;;;;;5.47;1.10;;;21.00;99.90;;;;;;4857628;29;20045;-90
2023/09/14 10:24:11;;;;;;;3.92;0.93;;;21.00;99.90;;;;;;4875601;29;20052;-90
2023/09/14 10:26:37;;;;;;;2.22;0.75;;;21.00;99.90;;;;;;4859804;29;20113;-91
2023/09/14 10:29:08;;;;;;;2.27;0.90;;;21.00;99.90;;;;;;4861224;29;20116;-94
2023/09/14 10:31:35;;;;;;;3.95;0.80;;;21.10;99.90;;;;;;4862148;29;20586;-93
2023/09/14 10:34:03;;;;;;;4.07;0.80;;;21.20;99.90;;;;;;4860652;29;20072;-89
2023/09/14 10:36:31;;;;;;;3.00;0.90;;;21.40;99.90;;;;;;4859860;29;20121;-92
2023/09/14 10:39:00;;;;;;;2.80;0.80;;;21.50;99.90;;;;;;4858702;29;20397;-93
2023/09/14 10:41:27;;;;;;;1.88;0.88;;;21.50;99.90;;;;;;4881460;29;20105;-91
2023/09/14 10:43:54;;;;;;;3.25;0.80;;;21.30;99.90;;;;;;4876836;29;20613;-91
2023/09/14 10:46:26;;;;;;;1.92;0.75;;;21.30;99.90;;;;;;4863677;29;20055;-94
2023/09/14 10:48:55;;;;;;;4.47;0.90;;;21.40;99.90;;;;;;4863367;29;20120;-91
2023/09/14 10:51:22;;;;;;;4.20;0.80;;;21.50;99.90;;;;;;4859175;29;20131;-91
2023/09/14 10:53:49;;;;;;;2.95;0.70;;;21.50;99.90;;;;;;4862347;29;20138;-93
2023/09/14 10:56:22;;;;;;;2.53;0.98;;;21.60;99.90;;;;;;4847107;29;20049;-92
2023/09/14 10:58:53;;;;;;;3.70;1.00;;;21.40;97.90;;;;;;4859920;29;20386;-92
2023/09/14 11:01:27;;;;;;;3.13;1.00;;;21.10;99.90;;;;;;4859040;29;20060;-94
2023/09/14 11:04:06;;;;;;;2.33;0.88;;;21.00;98.90;;;;;;4874569;29;20045;-93
2023/09/14 11:06:49;;;;;;;2.85;0.88;;;20.90;99.90;;;;;;4865644;29;20048;-92
2023/09/14 11:09:16;;;;;;;2.05;0.90;;;20.80;99.90;;;;;;4853465;29;20041;-92
2023/09/14 11:11:44;;;;;;;1.58;0.70;;;20.70;99.90;;;;;;4848455;29;20036;-92
2023/09/14 11:14:13;;;;;;;4.45;0.85;;;20.50;99.90;;;;;;4873928;29;20044;-91
2023/09/14 11:16:47;;;;;;;3.03;1.15;;;20.40;99.90;;;;;;4864778;29;20085;-92
2023/09/14 11:19:34;;;;;;;4.97;1.15;;;20.10;99.90;;;;;;4866912;29;20044;-91
2023/09/14 11:22:16;;;;;;;3.88;0.90;;;20.10;99.90;;;;;;4864550;29;20493;-91
2023/09/14 11:24:42;;;;;;;2.30;1.08;;;19.90;99.40;;;;;;4876161;29;20053;-91
2023/09/14 11:27:18;;;;;;;3.47;0.80;;;20.10;99.90;;;;;;4855632;29;20070;-92
2023/09/14 11:29:45;;;;;;;1.95;0.95;;;20.40;99.90;;;;;;4855821;29;20501;-95
2023/09/14 11:32:19;;;;;;;3.65;0.90;;;20.70;99.90;;;;;;4850008;29;20048;-93
2023/09/14 11:34:46;;;;;;;2.95;0.70;;;20.90;99.90;;;;;;4859334;29;20037;-94
2023/09/14 11:37:15;;;;;;;1.40;0.68;;;20.90;99.90;;;;;;4863725;29;20052;-93
2023/09/14 11:39:41;;;;;;;2.90;0.90;;;20.70;99.90;;;;;;4866401;29;20400;-92
2023/09/14 11:42:06;;;;;;;3.97;1.05;;;20.40;99.90;;;;;;4864049;29;20040;-94
2023/09/14 11:44:46;;;;;;;2.38;1.00;;;20.30;99.90;;;;;;4867250;29;20053;-95
2023/09/14 11:47:14;;;;;;;4.35;1.67;;;20.20;99.90;;;;;;4866751;29;20393;-95
2023/09/14 11:49:44;;;;;;;4.90;1.15;;;20.20;99.90;;;;;;4870964;29;20041;-94
2023/09/14 11:52:11;;;;;;;1.55;0.90;;;20.30;99.90;;;;;;4837083;29;20139;-92
2023/09/14 11:54:37;;;;;;;3.78;0.90;;;20.50;99.90;;;;;;4837284;29;20041;-91
2023/09/14 11:57:07;;;;;;;3.63;0.88;;;20.70;99.90;;;;;;4833411;29;20474;-91
2023/09/14 11:59:33;;;;;;;6.95;1.20;;;20.80;99.90;;;;;;4863146;29;20055;-91
2023/09/14 12:02:01;;;;;;;2.95;0.95;;;21.00;99.90;;;;;;4838325;29;20044;-90
2023/09/14 12:04:29;;;;;;;3.85;1.15;;;21.00;99.90;;;;;;4842279;29;20036;-89
2023/09/14 12:06:56;;;;;;;2.90;0.90;;;20.90;99.90;;;;;;4847358;29;20059;-91
2023/09/14 12:09:54;;;;;;;2.75;1.00;;;20.80;99.90;;;;;;4848531;29;20055;-91
2023/09/14 12:12:30;;;;;;;2.17;1.10;;;20.60;99.90;;;;;;4826146;29;20080;-91
2023/09/14 12:15:00;;;;;;;3.05;1.10;;;20.50;99.90;;;;;;4863439;29;20115;-89
2023/09/14 12:17:28;;;;;;;2.95;0.93;;;20.40;99.90;;;;;;4874212;29;20500;-90
2023/09/14 12:19:56;;;;;;;5.35;1.00;;;20.30;99.90;;;;;;4845458;29;20044;-91
2023/09/14 12:22:24;;;;;;;3.88;1.10;;;20.30;99.90;;;;;;4847245;29;20141;-89
2023/09/14 12:24:51;;;;;;;2.15;0.95;;;20.30;99.90;;;;;;4864478;29;20044;-91
2023/09/14 12:27:17;;;;;;;;;;;20.40;99.90;;;;;;4862749;29;20082;-93
2023/09/14 12:29:44;;;;;;;3.47;1.20;;;20.40;99.90;;;;;;4864272;29;19930;-92
2023/09/14 12:32:10;;;;;;;;;;;20.40;99.90;;;;;;4873238;29;20073;-89
2023/09/14 12:34:37;;;;;;;3.92;1.52;;;20.40;99.90;;;;;;4861380;29;19920;-90
2023/09/14 12:37:03;;;;;;;3.13;0.82;;;20.40;99.90;;;;;;4836480;29;20036;-91
2023/09/14 12:39:29;;;;;;;4.80;1.13;;;20.50;99.90;;;;;;4859827;29;20045;-92
2023/09/14 12:41:58;;;;;;;3.35;1.10;;;20.60;99.90;;;;;;4863701;29;20477;-89
2023/09/14 12:44:24;;;;;;;5.47;1.10;;;20.70;99.90;;;;;;4860786;29;20053;-89
2023/09/14 12:46:53;;;;;;;2.53;1.05;;;20.80;99.90;;;;;;4859548;29;20049;-93
2023/09/14 12:49:19;;;;;;;3.00;1.20;;;20.80;99.90;;;;;;4856275;29;20195;-90
2023/09/14 12:51:50;;;;;;;2.33;1.00;;;20.90;99.90;;;;;;4845244;29;20125;-91
2023/09/14 12:54:22;;;;;;;2.50;1.10;;;20.90;99.90;;;;;;4873261;29;20040;-88
2023/09/14 12:56:48;;;;;;;3.80;1.15;;;20.90;99.90;;;;;;4871766;29;20135;-90
2023/09/14 12:59:14;;;;;;;3.15;1.10;;;20.90;99.90;;;;;;4857213;29;20585;-91
2023/09/14 13:01:40;;;;;;;5.50;1.10;;;20.80;99.90;;;;;;4847079;29;20173;-91
2023/09/14 13:04:08;;;;;;;3.92;1.10;;;20.80;99.90;;;;;;4849715;29;20140;-91
2023/09/14 13:06:35;;;;;;;3.72;1.08;;;20.70;99.90;;;;;;4858330;29;20189;-91
2023/09/14 13:09:08;;;;;;;3.00;1.05;;;20.70;99.90;;;;;;4847381;29;20408;-90
2023/09/14 13:11:36;;;;;;;3.40;1.23;;;20.70;99.90;;;;;;4859711;29;20044;-91